Time;durP1;ratioP1;P1;durP2;ratioP2;P2;SDS_P1;SDS_P2;PMS_P1;PMS_P2;Temp;Humidity;BMP_temperature;BMP_pressure;BME280_temperature;BME280_humidity;BME280_pressure;Samples;Min_cycle;Max_cycle;Signal;HPM_P1;HPM_P2
2023/11/15 00:00:11;;;;;;;15.00;3.00;;;;;;;10.05;100.00;98858.20;223358;1268;140631;-85
2023/11/15 00:06:12;;;;;;;10.70;3.40;;;;;;;10.04;100.00;98861.79;223993;1268;139706;-85
2023/11/15 00:12:13;;;;;;;14.20;3.70;;;;;;;10.05;100.00;98864.24;223242;1266;141128;-85
2023/11/15 00:18:06;;;;;;;;;;;;;;;;;;;;;
2023/11/15 00:24:07;;;;;;;16.00;4.10;;;;;;;10.02;100.00;98873.27;224006;1265;139457;-83
2023/11/15 00:30:14;;;;;;;13.90;3.80;;;;;;;9.98;100.00;98872.30;223526;1266;140524;-86
2023/11/15 00:36:12;;;;;;;;;;;;;;;;;;;;;
2023/11/15 00:42:14;;;;;;;18.80;4.20;;;;;;;9.92;100.00;98872.20;223346;1266;140439;-86
2023/11/15 00:47:54;;;;;;;15.10;4.10;;;;;;;9.92;100.00;98880.45;223369;1267;140369;-84
2023/11/15 00:53:54;;;;;;;;;;;;;;;;;;;;;
2023/11/15 01:06:01;;;;;;;10.50;3.60;;;;;;;9.89;100.00;98885.11;223860;1266;138603;-85
2023/11/15 01:12:03;;;;;;;13.80;4.00;;;;;;;9.88;100.00;98887.16;223310;1266;140718;-85
2023/11/15 01:18:07;;;;;;;10.60;3.70;;;;;;;9.88;100.00;98885.19;224004;1266;138656;-85
2023/11/15 01:24:04;;;;;;;13.10;4.10;;;;;;;9.89;100.00;98886.13;223875;1266;138749;-84
2023/11/15 01:30:05;;;;;;;14.70;3.90;;;;;;;9.88;100.00;98885.27;223538;1266;140381;-85
2023/11/15 01:36:07;;;;;;;14.30;3.90;;;;;;;9.88;100.00;98884.73;224036;1266;139273;-84
2023/11/15 01:42:06;;;;;;;14.40;3.30;;;;;;;9.87;100.00;98881.92;223364;1266;141421;-85
2023/11/15 01:48:07;;;;;;;14.00;4.00;;;;;;;9.87;100.00;98888.67;223469;1265;140588;-85
2023/11/15 01:54:10;;;;;;;18.50;4.30;;;;;;;9.87;100.00;98879.95;223868;1266;138842;-85
2023/11/15 02:00:34;;;;;;;15.50;3.50;;;;;;;9.88;100.00;98877.19;223340;1268;140639;-85
2023/11/15 02:06:10;;;;;;;19.00;3.90;;;;;;;9.87;100.00;98880.19;223816;1265;139253;-86
2023/11/15 02:12:11;;;;;;;11.70;3.30;;;;;;;9.87;100.00;98881.86;223398;1265;140397;-85
2023/11/15 02:18:13;;;;;;;16.60;3.10;;;;;;;9.86;100.00;98886.88;223345;1268;140564;-84
2023/11/15 02:24:14;;;;;;;13.30;3.10;;;;;;;9.85;100.00;98892.06;223958;1266;139400;-86
2023/11/15 02:30:15;;;;;;;16.60;3.80;;;;;;;9.85;100.00;98887.98;223434;1268;140650;-86
2023/11/15 02:42:14;;;;;;;;;;;;;;;;;;;;;
2023/11/15 02:47:56;;;;;;;;;;;;;;;;;;;;;
2023/11/15 02:53:46;;;;;;;14.80;3.70;;;;;;;9.83;100.00;98900.80;224021;1267;138991;-86
2023/11/15 02:59:47;;;;;;;16.20;3.40;;;;;;;9.83;100.00;98904.50;223448;1266;140423;-85
2023/11/15 03:05:47;;;;;;;;;;;;;;;;;;;;;
2023/11/15 03:11:50;;;;;;;11.30;3.10;;;;;;;9.84;100.00;98915.23;223363;1268;140640;-85
2023/11/15 03:17:54;;;;;;;10.80;3.10;;;;;;;9.84;100.00;98918.92;224107;1266;139103;-85
2023/11/15 03:23:55;;;;;;;14.70;3.00;;;;;;;9.83;100.00;98925.54;223832;1265;383009;-85
2023/11/15 03:29:48;;;;;;;;;;;;;;;;;;;;;
2023/11/15 03:35:50;;;;;;;17.00;3.90;;;;;;;9.84;100.00;98936.52;223814;1265;138885;-84
2023/11/15 03:41:51;;;;;;;10.50;2.90;;;;;;;9.83;100.00;98936.20;223434;1266;140539;-86
2023/11/15 03:47:54;;;;;;;12.20;3.20;;;;;;;9.81;100.00;98935.76;223876;1267;138666;-86
2023/11/15 03:53:55;;;;;;;11.50;2.80;;;;;;;9.81;100.00;98943.76;223817;1268;363044;-86
2023/11/15 03:59:58;;;;;;;13.10;3.50;;;;;;;9.80;100.00;98952.01;223450;1267;140563;-86
2023/11/15 04:05:57;;;;;;;12.30;3.50;;;;;;;9.80;100.00;98958.06;223877;1267;138841;-86
2023/11/15 04:11:58;;;;;;;11.60;3.40;;;;;;;9.78;100.00;98966.87;223326;1266;142707;-86
2023/11/15 04:17:40;;;;;;;13.60;3.70;;;;;;;9.76;100.00;98972.70;223942;1265;138623;-88
2023/11/15 04:23:33;;;;;;;6.70;2.60;;;;;;;9.70;100.00;98976.91;223820;1267;138672;-89
2023/11/15 04:29:35;;;;;;;7.80;2.20;;;;;;;9.67;100.00;98977.88;223412;1265;140240;-87
2023/11/15 04:35:28;;;;;;;8.60;2.30;;;;;;;9.63;100.00;98979.32;223833;1267;139059;-88
2023/11/15 04:41:31;;;;;;;9.00;2.20;;;;;;;9.58;100.00;98978.02;223528;1267;140556;-87
2023/11/15 04:47:32;;;;;;;4.90;2.10;;;;;;;9.58;100.00;98986.65;223958;1267;138828;-86
2023/11/15 04:53:18;;;;;;;7.80;2.50;;;;;;;9.59;100.00;98990.26;223828;1267;138578;-84
2023/11/15 04:59:20;;;;;;;10.50;3.50;;;;;;;9.57;100.00;98994.52;223500;1267;140560;-87
2023/11/15 05:11:12;;;;;;;8.10;3.30;;;;;;;9.55;100.00;99012.51;223457;1266;140644;-87
2023/11/15 05:17:12;;;;;;;;;;;;;;;;;;;;;
2023/11/15 05:23:15;;;;;;;11.30;3.40;;;;;;;9.54;100.00;99026.16;223913;1265;139439;-87
2023/11/15 05:29:16;;;;;;;9.40;4.10;;;;;;;9.52;100.00;99036.91;223361;1265;140580;-87
2023/11/15 05:41:16;;;;;;;13.90;4.20;;;;;;;9.49;100.00;99045.42;223440;1265;140172;-88
2023/11/15 05:47:18;;;;;;;11.50;3.80;;;;;;;9.50;100.00;99054.91;224030;1265;95885;-87
2023/11/15 05:53:06;;;;;;;12.80;3.80;;;;;;;9.49;100.00;99067.39;223929;1265;95888;-87
2023/11/15 05:59:03;;;;;;;;;;;;;;;;;;;;;
2023/11/15 06:05:05;;;;;;;12.70;4.60;;;;;;;9.50;100.00;99084.56;223898;1265;139007;-86
2023/11/15 06:10:57;;;;;;;8.50;3.80;;;;;;;9.50;100.00;99097.52;223231;1266;142741;-86
2023/11/15 06:16:44;;;;;;;9.10;3.60;;;;;;;9.44;100.00;99114.41;223931;1266;138409;-86
2023/11/15 06:22:23;;;;;;;;;;;;;;;;;;;;;
2023/11/15 06:28:18;;;;;;;;;;;;;;;;;;;;;
2023/11/15 06:34:09;;;;;;;38.20;17.30;;;;;;;9.35;100.00;99139.79;223895;1265;138513;-86
2023/11/15 06:40:10;;;;;;;43.10;19.80;;;;;;;9.35;100.00;99148.42;223131;1265;141586;-85
2023/11/15 06:46:05;;;;;;;;;;;;;;;;;;;;;
2023/11/15 06:52:07;;;;;;;25.10;12.60;;;;;;;9.27;100.00;99169.17;223471;1266;140939;-88
2023/11/15 06:58:08;;;;;;;11.20;4.50;;;;;;;9.22;100.00;99175.39;223306;1265;140826;-89
2023/11/15 07:04:03;;;;;;;;;;;;;;;;;;;;;
2023/11/15 07:10:05;;;;;;;14.70;6.70;;;;;;;9.17;100.00;99184.11;223362;1264;140690;-88
2023/11/15 07:16:07;;;;;;;11.30;3.70;;;;;;;9.15;100.00;99193.05;223812;1265;138506;-90
2023/11/15 07:22:09;;;;;;;11.60;5.50;;;;;;;9.14;100.00;99199.48;223184;1266;140449;-89
2023/11/15 07:28:09;;;;;;;16.70;7.40;;;;;;;9.15;100.00;99209.05;223251;1264;140606;-89
2023/11/15 07:34:10;;;;;;;25.00;12.20;;;;;;;9.13;100.00;99213.05;223888;1265;138474;-88
2023/11/15 07:40:12;;;;;;;9.20;2.90;;;;;;;9.13;100.00;99224.73;223247;1265;140266;-90
2023/11/15 07:46:10;;;;;;;;;;;;;;;;;;;;;
2023/11/15 07:52:12;;;;;;;6.10;3.10;;;;;;;9.12;100.00;99253.14;223370;1265;140903;-91
2023/11/15 07:58:05;;;;;;;;;;;;;;;;;;;;;
2023/11/15 08:04:04;;;;;;;;;;;;;;;;;;;;;
2023/11/15 08:10:13;;;;;;;9.40;3.30;;;;;;;9.09;100.00;99283.09;223187;1265;139862;-91
2023/11/15 08:16:12;;;;;;;10.50;3.30;;;;;;;9.09;100.00;99284.58;223809;1265;138290;-90
2023/11/15 08:22:12;;;;;;;8.40;2.70;;;;;;;9.11;100.00;99289.91;223231;1265;140767;-90
2023/11/15 08:28:13;;;;;;;7.00;2.40;;;;;;;9.11;100.00;99298.69;223397;1265;140230;-90
2023/11/15 08:34:06;;;;;;;;;;;;;;;;;;;;;
2023/11/15 08:39:56;;;;;;;5.90;2.70;;;;;;;9.15;100.00;99327.46;223296;1264;140257;-89
2023/11/15 08:45:57;;;;;;;6.90;2.80;;;;;;;9.15;100.00;99340.70;223931;1266;138435;-90
2023/11/15 08:51:58;;;;;;;9.00;3.30;;;;;;;9.16;100.00;99359.77;223280;1265;140557;-90
2023/11/15 08:57:53;;;;;;;6.80;2.70;;;;;;;9.19;100.00;99364.86;223900;1264;138408;-87
2023/11/15 09:03:45;;;;;;;;;;;;;;;;;;;;;
2023/11/15 09:10:01;;;;;;;4.80;2.40;;;;;;;9.17;100.00;99389.02;223373;1265;140158;-87
2023/11/15 09:15:38;;;;;;;4.70;2.30;;;;;;;9.18;100.00;99403.07;223770;1264;138193;-88
2023/11/15 09:21:11;;;;;;;5.90;2.10;;;;;;;9.19;100.00;99415.14;223366;1265;139659;-88
2023/11/15 09:27:12;;;;;;;6.40;2.50;;;;;;;9.21;100.00;99422.52;223940;1265;138960;-87
2023/11/15 09:33:36;;;;;;;4.70;2.40;;;;;;;9.19;100.00;99425.27;223575;1265;140351;-87
2023/11/15 09:39:16;;;;;;;6.30;2.10;;;;;;;9.18;100.00;99435.77;219308;1264;140094;-87
2023/11/15 09:45:02;;;;;;;;;;;;;;;;;;;;;
2023/11/15 09:50:54;;;;;;;4.30;1.80;;;;;;;9.15;100.00;99467.44;223330;1265;141849;-88
2023/11/15 09:56:55;;;;;;;3.50;1.80;;;;;;;9.13;100.00;99476.95;223853;1265;138696;-86
2023/11/15 10:02:31;;;;;;;;;;;;;;;;;;;;;
2023/11/15 10:08:21;;;;;;;5.90;2.60;;;;;;;9.09;100.00;99494.02;223397;1265;141158;-87
2023/11/15 10:14:31;;;;;;;;;;;;;;;;;;;;;
2023/11/15 10:20:33;;;;;;;4.60;2.40;;;;;;;9.08;100.00;99502.50;223324;1265;140556;-88
2023/11/15 10:26:35;;;;;;;7.40;2.40;;;;;;;9.09;100.00;99509.72;223830;1264;139007;-88
2023/11/15 10:32:37;;;;;;;5.30;2.70;;;;;;;9.08;100.00;99512.69;223543;1264;139999;-86
2023/11/15 10:39:15;;;;;;;7.30;3.70;;;;;;;9.12;100.00;99524.08;223216;1265;141523;-86
2023/11/15 10:44:36;;;;;;;;;;;;;;;;;;;;;
2023/11/15 10:50:21;;;;;;;;;;;;;;;9.11;100.00;99535.83;223280;1265;140648;-87
2023/11/15 10:56:22;;;;;;;9.40;3.80;;;;;;;9.06;100.00;99542.95;224006;1264;125085;-87
2023/11/15 11:02:19;;;;;;;;;;;;;;;;;;;;;
2023/11/15 11:08:22;;;;;;;9.10;5.00;;;;;;;9.07;100.00;99561.38;223346;1265;140291;-87
2023/11/15 11:14:08;;;;;;;13.50;5.20;;;;;;;9.07;100.00;99573.30;223951;1265;139192;-87
2023/11/15 11:20:13;;;;;;;9.70;4.90;;;;;;;9.04;100.00;99582.77;223233;1265;140851;-87
2023/11/15 11:26:14;;;;;;;7.80;4.60;;;;;;;9.05;100.00;99599.80;224034;1265;139169;-86
2023/11/15 11:31:59;;;;;;;8.60;5.00;;;;;;;9.09;100.00;99607.50;223463;1265;140240;-87
2023/11/15 11:44:10;;;;;;;;;;;;;;;;;;;;;
2023/11/15 11:50:27;;;;;;;9.90;4.40;;;;;;;9.09;100.00;99626.23;223387;1265;140465;-84
2023/11/15 11:56:26;;;;;;;;;;;;;;;;;;;;;
2023/11/15 12:02:18;;;;;;;;;;;;;;;;;;;;;
2023/11/15 12:08:22;;;;;;;11.70;5.10;;;;;;;9.18;100.00;99659.21;223255;1265;140114;-87
2023/11/15 12:14:20;;;;;;;;;;;;;;;;;;;;;
2023/11/15 12:20:25;;;;;;;7.60;4.10;;;;;;;9.22;100.00;99672.33;223403;1265;140766;-88
2023/11/15 12:26:21;;;;;;;;;;;;;;;;;;;;;
2023/11/15 12:32:05;;;;;;;11.90;4.90;;;;;;;9.21;100.00;99697.44;223474;1265;140589;-91
2023/11/15 12:37:55;;;;;;;;;;;;;;;;;;;;;
2023/11/15 12:44:00;;;;;;;8.80;4.90;;;;;;;9.29;100.00;99708.46;223824;1265;138638;-91
2023/11/15 12:56:07;;;;;;;8.30;4.10;;;;;;;9.37;100.00;99721.52;223834;1265;138526;-91
2023/11/15 13:01:50;;;;;;;;;;;;;;;;;;;;;
2023/11/15 13:07:42;;;;;;;13.20;5.20;;;;;;;9.39;100.00;99739.25;223987;1265;138993;-91
2023/11/15 13:13:39;;;;;;;13.00;5.40;;;;;;;9.39;100.00;99740.73;223957;1265;389968;-91
2023/11/15 13:19:39;;;;;;;11.40;6.60;;;;;;;9.42;100.00;99757.55;223156;1265;140207;-92
2023/11/15 13:25:30;;;;;;;14.40;6.00;;;;;;;9.40;100.00;99767.52;223842;1265;138632;-91
2023/11/15 13:31:23;;;;;;;;;;;;;;;;;;;;;
2023/11/15 13:37:25;;;;;;;12.70;5.90;;;;;;;9.34;100.00;99795.17;223848;1265;138521;-91
2023/11/15 13:43:26;;;;;;;17.60;6.80;;;;;;;9.31;100.00;99809.89;223837;1264;138662;-91
2023/11/15 13:49:28;;;;;;;18.60;9.50;;;;;;;9.31;100.00;99822.06;223443;1264;140526;-90
2023/11/15 13:55:27;;;;;;;14.10;6.20;;;;;;;9.31;100.00;99829.27;223899;1265;138830;-90
2023/11/15 14:01:28;;;;;;;12.00;5.50;;;;;;;9.28;100.00;99837.97;223468;1264;140019;-90
2023/11/15 14:07:29;;;;;;;11.00;5.40;;;;;;;9.25;100.00;99845.55;224146;1265;139102;-91
2023/11/15 14:13:15;;;;;;;11.40;5.70;;;;;;;9.23;100.00;99863.59;223999;1266;138805;-89
2023/11/15 14:19:26;;;;;;;12.40;7.60;;;;;;;9.22;100.00;99879.27;223508;1265;140736;-89
2023/11/15 14:25:19;;;;;;;11.30;5.10;;;;;;;9.19;100.00;99888.96;223847;1266;138831;-88
2023/11/15 14:31:01;;;;;;;;;;;;;;;;;;;;;
2023/11/15 14:37:03;;;;;;;13.00;7.20;;;;;;;9.08;100.00;99914.20;223896;1265;138826;-87
2023/11/15 14:43:05;;;;;;;18.20;9.50;;;;;;;9.02;100.00;99922.46;223219;1265;140001;-89
2023/11/15 14:49:06;;;;;;;18.30;12.00;;;;;;;8.92;100.00;99935.15;223543;1265;140779;-88
2023/11/15 14:54:52;;;;;;;18.40;13.30;;;;;;;8.82;100.00;99944.06;223967;1266;139428;-89
2023/11/15 15:00:44;;;;;;;20.00;12.00;;;;;;;8.75;100.00;99953.34;223301;1268;140216;-89
2023/11/15 15:06:30;;;;;;;;;;;;;;;;;;;;;
2023/11/15 15:12:22;;;;;;;25.40;16.50;;;;;;;8.62;100.00;99975.13;223503;1265;142017;-89
2023/11/15 15:18:15;;;;;;;;;;;;;;;;;;;;;
2023/11/15 15:24:16;;;;;;;24.20;16.90;;;;;;;8.57;100.00;100008.77;224006;1265;139254;-89
2023/11/15 15:30:39;;;;;;;24.20;15.50;;;;;;;8.52;100.00;100025.55;223449;1268;140305;-89
2023/11/15 15:36:24;;;;;;;13.50;8.80;;;;;;;8.44;100.00;100033.05;223831;1266;139331;-89
2023/11/15 15:42:25;;;;;;;15.80;9.40;;;;;;;8.39;100.00;100046.20;223292;1268;141009;-90
2023/11/15 15:48:26;;;;;;;14.10;8.10;;;;;;;8.37;100.00;100063.73;223223;1265;140578;-89
2023/11/15 15:54:27;;;;;;;17.40;9.80;;;;;;;8.32;100.00;100070.95;224056;1265;138917;-90
2023/11/15 16:00:28;;;;;;;16.10;10.30;;;;;;;8.28;100.00;100071.98;223229;1265;140706;-90
2023/11/15 16:06:08;;;;;;;;;;;;;;;;;;;;;
2023/11/15 16:12:08;;;;;;;;;;;;;;;;;;;;;
2023/11/15 16:18:00;;;;;;;;;;;;;;;;;;;;;
2023/11/15 16:24:01;;;;;;;;;;;;;;;;;;;;;
2023/11/15 16:30:03;;;;;;;15.50;8.30;;;;;;;8.07;100.00;100131.84;223528;1268;140637;-88
2023/11/15 16:36:04;;;;;;;17.20;9.70;;;;;;;8.03;100.00;100144.95;223932;1267;107365;-87
2023/11/15 16:41:55;;;;;;;;;;;;;;;;;;;;;
2023/11/15 16:47:51;;;;;;;15.20;7.50;;;;;;;7.96;100.00;100163.46;224165;1268;108907;-85
2023/11/15 16:53:31;;;;;;;;;;;;;;;;;;;;;
2023/11/15 16:59:34;;;;;;;15.20;9.30;;;;;;;7.83;100.00;100177.64;223406;1265;140878;-86
2023/11/15 17:05:29;;;;;;;15.60;8.20;;;;;;;7.77;100.00;100182.62;223949;1268;139142;-85
2023/11/15 17:11:30;;;;;;;14.60;7.60;;;;;;;7.71;100.00;100201.84;223443;1265;140271;-86
2023/11/15 17:17:31;;;;;;;15.20;8.50;;;;;;;7.68;100.00;100218.67;224027;1268;138582;-86
2023/11/15 17:29:26;;;;;;;43.10;27.90;;;;;;;7.59;100.00;100235.73;223322;1268;140662;-85
2023/11/15 17:41:28;;;;;;;40.30;24.90;;;;;;;7.53;100.00;100253.84;223247;1266;141856;-87
2023/11/15 17:47:29;;;;;;;27.40;15.40;;;;;;;7.52;100.00;100264.60;223988;1268;138835;-85
2023/11/15 17:53:29;;;;;;;45.40;28.60;;;;;;;7.48;100.00;100266.79;223580;1266;386942;-85
2023/11/15 17:59:29;;;;;;;33.80;22.00;;;;;;;7.45;100.00;100284.79;223356;1266;140559;-86
2023/11/15 18:05:31;;;;;;;28.40;18.00;;;;;;;7.39;100.00;100289.84;223864;1267;138861;-85
2023/11/15 18:11:25;;;;;;;30.10;16.80;;;;;;;7.32;100.00;100296.26;223315;1266;141056;-85
2023/11/15 18:17:26;;;;;;;26.70;15.30;;;;;;;7.26;100.00;100302.45;223817;1265;138808;-88
2023/11/15 18:23:20;;;;;;;25.00;15.80;;;;;;;7.17;100.00;100307.73;223703;1265;139854;-87
2023/11/15 18:29:21;;;;;;;24.60;14.70;;;;;;;7.10;100.00;100310.27;223328;1265;140774;-88
2023/11/15 18:35:22;;;;;;;27.90;16.40;;;;;;;7.02;100.00;100311.84;223953;1266;139774;-88
2023/11/15 18:41:16;;;;;;;;;;;;;;;;;;;;;
2023/11/15 18:47:03;;;;;;;23.90;13.00;;;;;;;6.80;100.00;100322.33;223950;1268;138953;-87
2023/11/15 18:53:19;;;;;;;23.60;11.90;;;;;;;6.61;100.00;100320.52;223073;1268;140262;-87
2023/11/15 18:59:01;;;;;;;26.10;12.90;;;;;;;6.48;100.00;100318.80;223241;1265;140539;-87
2023/11/15 19:05:02;;;;;;;25.10;12.60;;;;;;;6.32;100.00;100320.31;223682;1265;138822;-88
2023/11/15 19:10:55;;;;;;;;;;;;;;;;;;;;;
2023/11/15 19:16:41;;;;;;;;;;;;;;;;;;;;;
2023/11/15 19:22:43;;;;;;;37.40;19.80;;;;;;;5.90;100.00;100333.31;223350;1267;142222;-88
2023/11/15 19:28:18;;;;;;;23.80;12.80;;;;;;;5.75;100.00;100335.58;223458;1265;140915;-88
2023/11/15 19:34:36;;;;;;;22.30;11.00;;;;;;;5.65;100.00;100341.52;223910;1268;138809;-89
2023/11/15 19:40:14;;;;;;;17.50;9.20;;;;;;;5.50;100.00;100340.77;223302;1265;140846;-89
2023/11/15 19:46:15;;;;;;;17.00;9.50;;;;;;;5.36;100.00;100347.45;223808;1268;139103;-88
2023/11/15 19:52:21;;;;;;;23.80;11.50;;;;;;;5.24;100.00;100348.25;223427;1268;140401;-86
2023/11/15 19:58:18;;;;;;;28.30;13.50;;;;;;;5.09;100.00;100347.63;223392;1266;140942;-87
2023/11/15 20:04:08;;;;;;;21.30;10.60;;;;;;;4.95;100.00;100342.27;223668;1268;139060;-86
2023/11/15 20:10:06;;;;;;;;;;;;;;;;;;;;;
2023/11/15 20:15:48;;;;;;;;;;;;;;;;;;;;;
2023/11/15 20:21:50;;;;;;;22.40;11.40;;;;;;;4.67;100.00;100360.56;223520;1267;140660;-84
2023/11/15 20:27:51;;;;;;;20.50;11.20;;;;;;;4.55;100.00;100367.40;223854;1268;139212;-86
2023/11/15 20:33:53;;;;;;;21.80;11.40;;;;;;;4.46;100.00;100375.11;223695;1267;139205;-85
2023/11/15 20:39:54;;;;;;;20.80;11.00;;;;;;;4.39;100.00;100386.95;223291;1265;140908;-85
2023/11/15 20:45:38;;;;;;;22.60;13.50;;;;;;;4.31;100.00;100389.56;223929;1266;139063;-86
2023/11/15 20:51:35;;;;;;;30.30;15.70;;;;;;;4.20;100.00;100396.23;223360;1265;140309;-86
2023/11/15 20:57:16;;;;;;;;;;;;;;;;;;;;;
2023/11/15 21:09:19;;;;;;;;;;;;;;;;;;;;;
2023/11/15 21:15:01;;;;;;;;;;;;;;;;;;;;;
2023/11/15 21:20:49;;;;;;;;;;;;;;;;;;;;;
2023/11/15 21:26:52;;;;;;;28.40;16.10;;;;;;;3.53;100.00;100414.80;223930;1267;139663;-87
2023/11/15 21:32:53;;;;;;;29.60;15.70;;;;;;;3.35;100.00;100413.79;223302;1268;140741;-87
2023/11/15 21:38:54;;;;;;;27.80;15.40;;;;;;;3.22;100.00;100417.64;219182;1267;5350620;-85
2023/11/15 21:44:55;;;;;;;45.90;23.10;;;;;;;3.16;100.00;100417.39;223873;1267;139244;-87
2023/11/15 21:50:56;;;;;;;49.70;25.80;;;;;;;3.11;100.00;100419.05;223254;1265;141193;-88
2023/11/15 21:56:57;;;;;;;46.80;23.60;;;;;;;3.06;100.00;100413.94;223865;1267;138960;-87
2023/11/15 22:02:58;;;;;;;51.00;23.40;;;;;;;2.98;100.00;100422.30;223413;1265;140593;-87
2023/11/15 22:09:00;;;;;;;57.70;25.70;;;;;;;2.85;100.00;100436.67;223489;1266;140573;-87
2023/11/15 22:15:01;;;;;;;126.30;43.20;;;;;;;2.83;100.00;100446.84;223825;1265;139413;-87
2023/11/15 22:21:02;;;;;;;114.10;43.60;;;;;;;2.75;100.00;100456.77;223213;1266;141368;-87
2023/11/15 22:27:03;;;;;;;111.60;46.20;;;;;;;2.64;100.00;100451.81;223913;1264;139612;-86
2023/11/15 22:33:04;;;;;;;106.50;46.00;;;;;;;2.59;100.00;100459.01;223283;1265;141224;-86
2023/11/15 22:44:53;;;;;;;134.20;50.40;;;;;;;2.47;100.00;100460.45;223812;1265;139601;-85
2023/11/15 22:50:55;;;;;;;129.70;50.70;;;;;;;2.39;100.00;100460.32;223260;1265;140209;-85
2023/11/15 22:56:54;;;;;;;;;;;;;;;;;;;;;
2023/11/15 23:02:56;;;;;;;145.80;60.50;;;;;;;2.26;100.00;100479.58;223416;1265;140471;-85
2023/11/15 23:08:56;;;;;;;142.70;58.00;;;;;;;2.18;100.00;100484.22;223368;1266;140923;-84
2023/11/15 23:20:41;;;;;;;167.20;69.90;;;;;;;2.08;100.00;100476.83;223400;1265;141658;-84
2023/11/15 23:26:34;;;;;;;177.80;68.00;;;;;;;2.10;100.00;100477.95;223829;1265;139139;-84
2023/11/15 23:32:35;;;;;;;152.40;58.10;;;;;;;2.10;100.00;100476.32;223219;1264;140966;-85
2023/11/15 23:38:37;;;;;;;130.00;55.50;;;;;;;2.13;100.00;100476.51;223296;1265;140801;-84
2023/11/15 23:44:35;;;;;;;149.00;57.50;;;;;;;2.16;100.00;100478.62;223886;1265;140336;-85
2023/11/15 23:50:25;;;;;;;173.40;63.30;;;;;;;2.18;100.00;100471.77;223406;1265;142619;-85
2023/11/15 23:56:19;;;;;;;;;;;;;;;;;;;;;
